Tiempo atmosférico en la estación meteorológica de Chinchilla, Albacete (880 m.)



Fecha
DESCASC
Temp. máxima en grados centígrados (hora)
DESCASC
Temp. mínima en grados centígrados (hora)
DESCASC
Temp. media en grados centígrados
DESCASC
Racha de viento máxima en m/sg (hora)
DESCASC
Velocidad máxima media en intervalos de 10 minutos(hora)
DESCASC
Precipitaciones diarias en mm
DESCASC
Precipitaciones de 00:00 a 06:00 en mm
DESCASC
Precipitaciones de 06:00 a 12:00 en mm
DESCASC
Precipitaciones de 12:00 a 18:00 en mm
DESCASC
Precipitaciones de 18:00 a 24:00 en mm
DESCASC
13-06-2019 26 (17:00) 10.5 (01:10) 18.3 12.22 (17:20) 7.22 (17:10) 0 0 0 0 0
12-06-2019 24.5 (16:40) 5.6 (05:50) 15 10.56 (20:10) 7.22 (21:20) 0 0 0 0 0
11-06-2019 23.1 (15:50) 9.9 (23:59) 16.5 12.78 (17:40) 7.5 (17:40) 0 0 0 0 0
10-06-2019 25.1 (16:30) 11.6 (06:50) 18.4 15.28 (05:40) 5.83 (20:30) 0 0 0 0 0
09-06-2019 26.4 (16:30) 10.6 (00:00) 18.5 10.83 (19:30) 5.83 (19:40) 0 0 0 0 0
08-06-2019 24.5 (16:30) 10.4 (00:00) 17.4 12.78 (08:50) 8.61 (20:00) 0 0 0 0 0
07-06-2019 22.4 (16:50) 9.8 (00:00) 16.1 12.22 (15:40) 7.22 (11:30) 0 0 0 0 0
06-06-2019 25.5 (16:30) 9.2 (00:00) 17.3 11.67 (13:50) 7.22 (19:50) 0 0 0 0 0
05-06-2019 19.6 (16:40) 12.5 (00:00) 16.1 16.94 (10:30) 10 (10:30) 0 0 0 0 0
04-06-2019 30.5 (17:30) 13.6 (00:00) 22.1 10.28 (18:10) 6.39 (19:50) 0 0 0 0 0
03-06-2019 32.4 (17:10) 12.3 (00:00) 22.4 10.28 (17:20) 6.11 (19:00) 0 0 0 0 0
02-06-2019 29.9 (16:50) 10.4 (00:00) 20.1 10.28 (16:00) 5.56 (20:20) 0 0 0 0 0
01-06-2019 29.1 (16:50) 9.6 (00:00) 19.4 9.72 (18:20) 6.11 (18:20) 0 0 0 0 0
31-05-2019 27.3 (16:20) 8.9 (00:00) 18.1 9.17 (14:50) 5.28 (19:20) 0 0 0 0 0
30-05-2019 25.8 (17:10) 7.8 (00:00) 16.8 9.17 (13:50) 5.28 (19:40) 0 0 0 0 0
29-05-2019 22.8 (17:50) 7.8 (00:00) 15.3 11.11 (15:10) 6.67 (10:40) 0 0 0 0 0
28-05-2019 25 (16:30) 10.3 (00:00) 17.7 12.22 (15:30) 6.94 (18:40) 0 0 0 0 0
27-05-2019 25.4 (16:10) 9.4 (00:00) 17.4 10.83 (18:10) 6.11 (18:10) 0 0 0 0 0
26-05-2019 23.2 (18:20) 9.3 (00:00) 16.3 8.06 (14:10) 4.17 (21:20) 0 0 0 0 0
25-05-2019 21.6 (18:20) 8.1 (00:00) 14.9 8.89 (08:50) 5.83 (08:40) 0 0 0 0 0
24-05-2019 23.3 (14:10) 10.1 (00:00) 16.7 10.28 (15:50) 6.67 (18:40) 0.5 0 0 0.5 0
23-05-2019 26.6 (15:40) 10.3 (00:00) 18.5 9.17 (16:30) 4.44 (20:50) 0 0 0 0 0
22-05-2019 26 (16:40) 9.1 (00:00) 17.6 9.17 (20:30) 6.39 (20:30) 0 0 0 0 0
21-05-2019 21.5 (13:50) 10.4 (07:00) 15.9 10 (19:30) 6.67 (19:30) 1.2 0.4 0 0.7 0.1
20-05-2019 20.8 (17:40) 6.3 (07:40) 13.5 8.33 (17:20) 4.44 (20:40) 0 0 0 0 0
19-05-2019 17.8 (16:30) 5.3 (00:00) 11.5 10 (14:20) 6.39 (17:40) 0 0 0 0 0
18-05-2019 15.4 (19:40) 7.6 (00:00) 11.5 13.89 (11:10) 6.67 (18:40) 0 0 0 0 0
17-05-2019 16.3 (00:50) 7.9 (00:00) 12.1 20.28 (09:50) 11.11 (12:00) 0 0 0 0 0

Gráficas

Temp. máximas Temp. mínimas Temp. medias Precipitaciones Rachas de viento máximas Velocidades máximas media en intervalos de 10 minutos

Datos horarios

Fecha y hora oficial Temperatura (ºC) Velocidad del viento (km/h) Dirección del viento Racha (km/h) Dirección de racha Precipitación (mm) Presión (hPa) Tendencia (hPa) Humedad (%)
2019-06-15 23:00:00 16.5 6 Norte 10 Norte 0 918.9 1.4 34
2019-06-15 22:00:00 17.7 5 Norte 8 Norte 0 918.4 1.4 32
2019-06-15 21:00:00 21.6 4 Nordeste 17 Nordeste 0 917.9 0.7 28
2019-06-15 20:00:00 22.2 8 Norte 23 Norte 0 917.5 -0.1 28
2019-06-15 19:00:00 23.4 7 Norte 26 Norte 0 917 -1.1 28
2019-06-15 18:00:00 23.1 9 Noroeste 23 Norte 0 917.2 -1.3 28
2019-06-15 17:00:00 23.4 4 Noroeste 24 Oeste 0 917.6 -1.4 29
2019-06-15 16:00:00 22.3 9 Noroeste 26 Norte 0 918.1 -1.3 32
2019-06-15 15:00:00 21 11 Oeste 26 Oeste 0 918.5 -0.8 34
2019-06-15 14:00:00 19.1 13 Noroeste 28 Noroeste 0 919 0 37
2019-06-15 13:00:00 17.8 15 Norte 31 Noroeste 0 919.4 0.6 41
2019-06-15 12:00:00 16.3 15 Noroeste 32 Noroeste 0 919.3 1.1 45
2019-06-15 11:00:00 14.1 20 Norte 33 Norte 0 919 1.7 48
2019-06-15 10:00:00 12.8 17 Noroeste 36 Noroeste 0 918.8 1.9 54
2019-06-15 09:00:00 11.2 18 Noroeste 32 Norte 0 918.2 1.6 56
2019-06-15 08:00:00 9.7 7 Noroeste 23 Noroeste 0 917.3 0.7 60
2019-06-15 07:00:00 9.2 15 Noroeste 24 Noroeste 0 916.9 0.2 60
2019-06-15 06:00:00 9.9 14 Noroeste 23 Noroeste 0 916.6 -0.2 56
2019-06-15 05:00:00 10.6 11 Noroeste 23 Noroeste 0 916.6 -0.2 53
2019-06-15 04:00:00 11.1 6 Noroeste 27 Oeste 0 916.7 0 49
2019-06-15 03:00:00 12 17 Noroeste 35 Noroeste 0 916.8 0.4 46
2019-06-15 02:00:00 12.4 15 Norte 37 Noroeste 0 916.8 0.8 42
2019-06-15 01:00:00 13.9 23 Noroeste 37 Noroeste 0 916.7 1.5 37
2019-06-15 00:00:00 14.9 20 Noroeste 33 Oeste 0 916.4 2.3 33
2019-06-14 23:00:00 16.2 16 Oeste 30 Noroeste 0 916 2.4 31
2019-06-14 22:00:00 17.5 17 Noroeste 44 Noroeste 0 915.2 2.2 26
2019-06-14 21:00:00 20.2 27 Noroeste 42 Noroeste 0 914.1 1.2 23
2019-06-14 20:00:00 21.3 26 Noroeste 44 Noroeste 0 913.6 0.6 27
2019-06-14 19:00:00 23 27 Noroeste 42 Noroeste 0 913 -0.3 26
2019-06-14 18:00:00 23.7 26 Noroeste 44 Noroeste 0 912.9 -0.4 24
2019-06-14 17:00:00 24.1 25 Oeste 39 Noroeste 0 913 -0.5 24
2019-06-14 16:00:00 24 14 Oeste 34 Oeste 0 913.3 -0.3 30
2019-06-14 15:00:00 23.6 14 Oeste 31 Oeste 0 913.3 -0.3 32
2019-06-14 14:00:00 22.4 13 Oeste 31 Sudoeste 0 913.5 0.1 32
2019-06-14 13:00:00 20.7 15 Noroeste 28 Noroeste 0 913.6 0.7 36
2019-06-14 12:00:00 19.1 10 Noroeste 31 Noroeste 0 913.6 1.3 42
2019-06-14 11:00:00 16.6 18 Noroeste 33 Noroeste 0 913.4 1.5 49
2019-06-14 10:00:00 14.2 15 Noroeste 29 Noroeste 0 912.9 -0.3 70
2019-06-14 09:00:00 12.2 14 Norte 30 Noroeste 0.4 912.3 2 83
2019-06-14 08:00:00 10.4 17 Norte 28 Sudoeste 7.9 911.9 1.3 93
2019-06-14 07:00:00 12 21 Sudoeste 33 Sudoeste 3.5 913.2 2.3 92
2019-06-14 06:00:00 12.3 23 Noroeste 35 Noroeste 1.5 910.3 -0.9 89
2019-06-14 05:00:00 12.3 9 Este 16 Sudeste 0 910.6 -0.8 76
2019-06-14 04:00:00 11.6 9 Sudeste 14 Sudeste 0 910.9 -0.8 77
2019-06-14 03:00:00 11.7 9 Sudeste 14 Sudeste 0 911.2 -1.3 77
2019-06-14 02:00:00 11.8 11 Sudeste 22 Este 0 911.4 -0.5 77
2019-06-14 01:00:00 12 16 Este 25 Sudeste 0 911.7 0.6 76
2019-06-14 00:00:00 12.6 17 Sudeste 28 Este 0 912.5 2 75
2019-06-13 23:00:00 13.3 21 Sudeste 33 Este 0 911.9 1.6 75
2019-06-13 22:00:00 14.4 21 Sudeste 32 Sudeste 0 911.1 1.1 67
2019-06-13 21:00:00 17 23 Sudeste 36 Este 0 910.5 0.3 55
2019-06-13 20:00:00 20.3 24 Este 36 Sudeste 0 910.3 -0.1 47
2019-06-13 19:00:00 22.3 21 Sudeste 36 Sudeste 0 910 -1 44
2019-06-13 18:00:00 22.9 25 Sudeste 44 Este 0 910.2 -1.1 42
2019-06-13 17:00:00 24.3 20 Sudeste 35 Sudeste 0 910.4 -1.6 38
2019-06-13 16:00:00 23 8 Sudeste 29 Sudeste 0 911 -1.6 41
2019-06-13 15:00:00 24.2 13 Sudeste 31 Sudeste 0 911.3 -2.1 41
2019-06-13 14:00:00 21.5 14 Sudeste 35 Sudeste 0 912 -1.3 45
2019-06-13 13:00:00 20.3 18 Sudeste 35 Sudeste 0 912.6 -0.3 52
2019-06-13 12:00:00 16.6 20 Sudeste 32 Sudeste 0 913.4 0.2 62
2019-06-13 11:00:00 16.3 18 Sudeste 33 Sudeste 0 913.3 0.8 65
2019-06-13 10:00:00 14.8 20 Sudeste 28 Sudeste 0 912.9 0.7 76
2019-06-13 09:00:00 13.9 18 Sudeste 28 Sudeste 0 913.2 1.2 83
2019-06-13 08:00:00 12.2 15 Sudeste 23 Sudeste 0 912.5 0.6 89
2019-06-13 07:00:00 11.2 13 Sudeste 23 Sudeste 0 912.2 0.1 90
2019-06-13 06:00:00 11.2 13 Sudeste 26 Sudeste 0 912 -0.5 89
2019-06-13 05:00:00 11.7 18 Sur 26 Sur 0 911.9 -0.8 88
2019-06-13 04:00:00 11.8 18 Sudeste 33 Sudeste 0 912.1 -0.9 87
2019-06-13 03:00:00 11.9 24 Sur 36 Sur 0 912.5 -0.5 84
2019-06-13 02:00:00 11.5 22 Sudeste 32 Sudeste 0 912.7 -0.1 85
2019-06-13 01:00:00 10.6 17 Sudeste 24 Sudeste 0 913 0.8 81
2019-06-13 00:00:00 11.6 17 Sudeste 26 Sudeste 0 913 1.2 74
2019-06-12 23:00:00 12.9 18 Sudeste 32 Sudeste 0 912.8 1.4 68
2019-06-12 22:00:00 14 21 Sur 38 Sur 0 912.2 1.2 63
2019-06-12 21:00:00 16.5 24 Sur 38 Sur 0 911.8 0.1 50
2019-06-12 20:00:00 19.6 20 Sur 37 Sur 0 911.4 -0.7 40
2019-06-12 19:00:00 22.5 15 Sudoeste 27 Sudoeste 0 911 -1.2 34
2019-06-12 18:00:00 22.2 14 Sudoeste 35 Sudoeste 0 911.7 -1 35
2019-06-12 17:00:00 24 9 Sudoeste 33 Sudoeste 0 912.1 -1.4 33
2019-06-12 16:00:00 22.9 13 Sur 32 Sur 0 912.2 -1.8 36
2019-06-12 15:00:00 22.5 17 Sur 31 Sur 0 912.7 -1.7 39
2019-06-12 14:00:00 21.1 17 Sur 35 Sur 0 913.5 -1.2 43
2019-06-12 13:00:00 18.9 19 Sur 32 Sudoeste 0 914 -0.4 49
2019-06-12 12:00:00 16.5 17 Sur 31 Sudoeste 0 914.4 0.5 56
2019-06-12 11:00:00 15.4 16 Sur 31 Sur 0 914.7 1.7 61
2019-06-12 10:00:00 13.3 17 Sudeste 28 Sudeste 0 914.4 1.5 62
2019-06-12 09:00:00 10.4 16 Sudeste 23 Sudeste 0 913.9 1.2 75
2019-06-12 08:00:00 7 14 Este 20 Sudeste 0 913 0.7 89
2019-06-12 07:00:00 5.6 9 Sudeste 11 Sudeste 0 912.9 0.6 85
2019-06-12 06:00:00 5.7 3 Sur 10 Sudeste 0 912.7 0.3 78
2019-06-12 05:00:00 6.5 6 Sudeste 14 Sudeste 0 912.3 -0.6 72
2019-06-12 04:00:00 7.4 10 Este 15 Este 0 912.3 -1.1 69
2019-06-12 03:00:00 7.9 10 Este 15 Este 0 912.4 -1.3 75
2019-06-12 02:00:00 9.2 9 Este 19 Este 0 912.9 -0.5 77
2019-06-12 01:00:00 9 8 Este 17 Este 0 913.4 0.7 79
2019-06-12 00:00:00 9.9 11 Sudeste 20 Sudeste 0 913.7 1.1 75
2019-06-11 23:00:00 10.5 15 Este 30 Sudeste 0 913.4 1.7 75
2019-06-11 22:00:00 11.5 17 Este 30 Sudeste 0 912.7 1.5 70
2019-06-11 21:00:00 14.3 21 Sudeste 32 Sudeste 0 912.6 2.2 59
2019-06-11 20:00:00 16.1 9 Este 30 Nordeste 0 911.7 1.9 56
2019-06-11 19:00:00 17 15 Nordeste 43 Nordeste 0 911.2 1.5 53
2019-06-11 18:00:00 18.9 26 Norte 46 Norte 0 910.4 0.7 41
2019-06-11 17:00:00 20.6 22 Noroeste 43 Norte 0 909.8 0.1 35
2019-06-11 16:00:00 22.9 17 Noroeste 38 Norte 0 909.7 -0.5 34
2019-06-11 15:00:00 21.5 14 Noroeste 37 Oeste 0 909.7 -0.7 35
2019-06-11 14:00:00 22.8 15 Oeste 37 Oeste 0 909.7 -0.7 36
2019-06-11 13:00:00 21 15 Noroeste 41 Oeste 0 910.2 -0.5 37
2019-06-11 12:00:00 20.7 14 Noroeste 30 Oeste 0 910.4 -0.3 37
2019-06-11 11:00:00 18.1 7 Noroeste 28 Oeste 0 910.4 -0.1 44
2019-06-11 10:00:00 16.4 18 Noroeste 30 Noroeste 0 910.7 0.2 50
2019-06-11 09:00:00 14.7 14 Noroeste 33 Noroeste 0 910.7 0.2 55
2019-06-11 08:00:00 13 23 Noroeste 35 Noroeste 0 910.5 -0.4 58
2019-06-11 07:00:00 12.8 20 Noroeste 30 Noroeste 0 910.5 -0.9 55
2019-06-11 06:00:00 13.5 18 Noroeste 28 Noroeste 0 910.5 -1.5 50
2019-06-11 05:00:00 14 18 Noroeste 26 Noroeste 0 910.9 -1.6 47
2019-06-11 04:00:00 13.7 10 Noroeste 16 Oeste 0 911.4 -1.6 51
2019-06-11 03:00:00 13.4 0 Calma 7 Sudoeste 0 912 -1.3 59
2019-06-11 02:00:00 14 0 Calma 6 Sur 0 912.5 -1 59
2019-06-11 01:00:00 14.5 5 Sur 9 Sur 0 913 0.1 56
2019-06-11 00:00:00 16.1 6 Sur 9 Sur 0 913.3 0.9 50
2019-06-10 23:00:00 16.3 3 Sudoeste 11 Sudeste 0 913.5 1.2 36
2019-06-10 22:00:00 18.2 8 Norte 19 Norte 0 912.9 0.6 31
2019-06-10 21:00:00 21.1 14 Noroeste 36 Noroeste 0 912.4 -0.2 28
2019-06-10 20:00:00 22.3 21 Norte 36 Noroeste 0 912.3 -0.8 28
2019-06-10 19:00:00 23.2 19 Noroeste 37 Oeste 0 912.3 -1.4 28
2019-06-10 18:00:00 24.7 15 Noroeste 35 Oeste 0 912.6 -1.7 28
2019-06-10 17:00:00 24.6 10 Noroeste 29 Oeste 0 913.1 -1.8 28
2019-06-10 16:00:00 24.1 17 Oeste 31 Oeste 0 913.7 -1.7 29
2019-06-10 15:00:00 22.5 15 Noroeste 33 Oeste 0 914.3 -1.3 31
2019-06-10 14:00:00 22.3 14 Noroeste 30 Oeste 0 914.9 -0.8 32
2019-06-10 13:00:00 21 17 Noroeste 33 Noroeste 0 915.4 -0.3 34
2019-06-10 12:00:00 20.3 16 Noroeste 32 Noroeste 0 915.6 -0.2 36
2019-06-10 11:00:00 18 15 Noroeste 26 Noroeste 0 915.7 0.4 43
2019-06-10 10:00:00 16.1 11 Noroeste 26 Norte 0 915.7 0.9 47
2019-06-10 09:00:00 13.5 15 Norte 27 Norte 0 915.8 0.8 50
2019-06-10 08:00:00 12.7 18 Noroeste 29 Noroeste 0 915.3 0.2 50
2019-06-10 07:00:00 11.9 16 Noroeste 27 Noroeste 0 914.8 -0.6 50
2019-06-10 06:00:00 12 14 Noroeste 55 Noroeste 0 915 -0.6 46
2019-06-10 05:00:00 12.7 18 Noroeste 26 Noroeste 0 915.1 -0.8 41
2019-06-10 04:00:00 13.1 17 Noroeste 27 Noroeste 0 915.4 -0.7 37
2019-06-10 03:00:00 14.2 19 Noroeste 28 Noroeste 0 915.6 -0.4 35
2019-06-10 02:00:00 15 16 Noroeste 23 Noroeste 0 915.9 0 33
2019-06-10 01:00:00 16.1 15 Noroeste 24 Noroeste 0 916.1 1 32
2019-06-10 00:00:00 17.4 15 Noroeste 23 Noroeste 0 916 1.6 32
2019-06-09 23:00:00 18.4 11 Noroeste 21 Noroeste 0 915.9 1.8 33
2019-06-09 22:00:00 20.4 13 Noroeste 32 Oeste 0 915.1 1.2 33
2019-06-09 21:00:00 22 13 Oeste 29 Oeste 0 914.4 0.2 32
2019-06-09 20:00:00 24.5 19 Oeste 39 Oeste 0 914.1 -0.3 29
2019-06-09 19:00:00 26 15 Oeste 32 Oeste 0 913.9 -1.2 27
2019-06-09 18:00:00 25.7 15 Noroeste 35 Oeste 0 914.2 -1.2 26
2019-06-09 17:00:00 25.6 16 Noroeste 33 Noroeste 0 914.4 -2.3 26
2019-06-09 16:00:00 25.7 15 Oeste 35 Oeste 0 915.1 -2 29
2019-06-09 15:00:00 23.6 14 Oeste 30 Noroeste 0 915.4 -1.4 32
2019-06-09 14:00:00 21.2 12 Oeste 22 Oeste 0 916.7 -0.5 39
2019-06-09 13:00:00 18.2 15 Noroeste 27 Noroeste 0 917.1 -0.7 44
2019-06-09 12:00:00 17.9 18 Norte 31 Noroeste 0 916.8 -0.5 49
2019-06-09 11:00:00 15.3 10 Noroeste 23 Noroeste 0 917.2 0.4 63
2019-06-09 10:00:00 15 11 Noroeste 22 Noroeste 0 917.8 1.1 65
2019-06-09 09:00:00 14 2 Este 9 Este 0 917.3 0.8 74
2019-06-09 08:00:00 12.2 8 Este 13 Sudeste 0 916.8 -0.5 78
2019-06-09 07:00:00 11.9 0 Calma 16 Este 0 916.7 -0.8 78
2019-06-09 06:00:00 11.5 8 Este 20 Este 0 916.5 -1.2 79
2019-06-09 05:00:00 10.9 13 Sudeste 26 Este 0 917.3 -1 81
2019-06-09 04:00:00 10.8 14 Este 24 Este 0 917.5 -1 84
2019-06-09 03:00:00 10.9 18 Sudeste 26 Sudeste 0 917.7 -1 83
2019-06-09 02:00:00 11.1 16 Este 23 Sudeste 0 918.3 -0.4 81
2019-06-09 01:00:00 11.6 15 Sudeste 24 Sudeste 0 918.5 0 76
2019-06-09 00:00:00 12.3 17 Sudeste 26 Sudeste 0 918.7 0.6 72
2019-06-08 23:00:00 13 19 Sudeste 26 Sudeste 0 918.7 0.7 69
2019-06-08 22:00:00 14.3 18 Sudeste 31 Sudeste 0 918.5 0.2 65
2019-06-08 21:00:00 16 27 Sudeste 43 Sudeste 0 918.1 -0.3 57
2019-06-08 20:00:00 18.4 31 Sudeste 44 Este 0 918 -0.7 49
2019-06-08 19:00:00 21 24 Sudeste 39 Sudeste 0 918.3 -0.8 45
2019-06-08 18:00:00 21.8 23 Sudeste 36 Sudeste 0 918.4 -1.1 44
2019-06-08 17:00:00 23.5 21 Sudeste 41 Sudeste 0 918.7 -1.4 42
2019-06-08 16:00:00 23 22 Sudeste 38 Sudeste 0 919.1 -1.5 42
2019-06-08 15:00:00 23.1 24 Sudeste 45 Sudeste 0 919.5 -1.1 42
2019-06-08 14:00:00 22.7 24 Sudeste 45 Sudeste 0 920.1 -0.8 44
2019-06-08 13:00:00 22 26 Sudeste 45 Sudeste 0 920.6 0 45
2019-06-08 12:00:00 20.6 26 Sudeste 43 Sudeste 0 920.6 0.3 50
2019-06-08 11:00:00 18.6 27 Sudeste 42 Sudeste 0 920.9 1.5 57
2019-06-08 10:00:00 16.8 28 Sudeste 43 Este 0 920.6 1.9 65
2019-06-08 09:00:00 14.3 29 Sudeste 46 Sudeste 0 920.3 1.4 77
2019-06-08 08:00:00 12 19 Sudeste 34 Este 0 919.4 0.6 85
2019-06-08 07:00:00 10.8 15 Este 22 Sudeste 0 918.7 -0.1 81
2019-06-08 06:00:00 10.6 13 Este 22 Sudeste 0 918.9 0.1 74
2019-06-08 05:00:00 10.6 10 Este 18 Este 0 918.8 0.2 56
2019-06-08 04:00:00 11.7 14 Este 19 Este 0 918.8 -0.1 34
2019-06-08 03:00:00 13 8 Este 15 Nordeste 0 918.8 -0.3 30
2019-06-08 02:00:00 13.6 9 Nordeste 13 Nordeste 0 918.6 -0.2 30
2019-06-08 01:00:00 13.6 10 Nordeste 14 Nordeste 0 918.9 0.9 31
2019-06-08 00:00:00 13.2 3 Nordeste 17 Nordeste 0 919.1 1.6 30
2019-06-07 23:00:00 15.2 10 Nordeste 18 Nordeste 0 918.8 1.9 29
2019-06-07 22:00:00 15.6 7 Norte 17 Nordeste 0 918 1.4 29
2019-06-07 21:00:00 18.9 11 Norte 24 Nordeste 0 917.5 1.1 25
2019-06-07 20:00:00 20.1 14 Norte 26 Norte 0 916.9 0.6 26
2019-06-07 19:00:00 20.7 17 Norte 29 Noroeste 0 916.6 0.2 28
2019-06-07 18:00:00 21.5 14 Norte 32 Norte 0 916.4 0 30
2019-06-07 17:00:00 22.2 14 Noroeste 32 Noroeste 0 916.3 -0.3 33
2019-06-07 16:00:00 20.9 17 Oeste 44 Noroeste 0 916.4 0 35
2019-06-07 15:00:00 19.8 18 Noroeste 39 Noroeste 0 916.4 0.3 40
2019-06-07 14:00:00 18.5 19 Oeste 40 Noroeste 0 916.6 1.3 46
2019-06-07 13:00:00 16.7 20 Noroeste 37 Noroeste 0 916.4 1.8 55
2019-06-07 12:00:00 14.8 21 Noroeste 41 Oeste 0 916.1 2.1 61
2019-06-07 11:00:00 15 21 Noroeste 39 Oeste 0 915.3 2.1 61
2019-06-07 10:00:00 14.2 21 Noroeste 39 Noroeste 0 914.6 1.9 65
2019-06-07 09:00:00 12.9 19 Oeste 36 Oeste 0 914 2.1 68
2019-06-07 08:00:00 11.3 12 Oeste 27 Oeste 0 913.2 1.9 70
2019-06-07 07:00:00 10.6 10 Oeste 30 Oeste 0 912.7 1.3 65
2019-06-07 06:00:00 11.3 14 Oeste 25 Oeste 0 911.9 0.4 59
2019-06-07 05:00:00 9.9 5 Oeste 15 Oeste 0 911.3 -0.4 82
2019-06-07 04:00:00 10.7 0 Calma 8 Sur 0 911.4 -0.3 86
2019-06-07 03:00:00 11.4 6 Sur 9 Sudeste 0 911.5 -0.2 81
2019-06-07 02:00:00 12.2 7 Sudeste 17 Sudeste 0 911.7 0 72
2019-06-07 01:00:00 12.9 10 Sudeste 14 Sudeste 0 911.7 0.5 65
2019-06-07 00:00:00 14.2 11 Sur 16 Sur 0 911.7 1.1 61
2019-06-06 23:00:00 14.9 12 Sur 17 Sur 0 911.7 1.5 55
2019-06-06 22:00:00 16.3 14 Sur 30 Sudoeste 0 911.2 1.2 49
2019-06-06 21:00:00 18.9 22 Sur 33 Sur 0 910.6 0.2 39
2019-06-06 20:00:00 21.1 22 Sur 39 Sur 0 910.2 -0.7 33
2019-06-06 19:00:00 23.3 20 Sur 32 Sur 0 910 -1.9 29
2019-06-06 18:00:00 24.7 17 Sur 35 Sur 0 910.4 -1.9 26
2019-06-06 17:00:00 25.1 15 Sur 41 Sudoeste 0 910.9 -1.9 25
2019-06-06 16:00:00 24.9 19 Sudoeste 38 Sudoeste 0 911.9 -1.6 24
2019-06-06 15:00:00 24.5 22 Sudoeste 40 Sudoeste 0 912.3 -1.7 25
2019-06-06 14:00:00 23.3 19 Sur 42 Sudoeste 0 912.8 -1.7 27
2019-06-06 13:00:00 21.7 21 Sur 31 Sur 0 913.5 -1.1 30
2019-06-06 12:00:00 20.9 13 Sur 32 Sudeste 0 914 -0.2 33
2019-06-06 11:00:00 19.1 5 Sur 13 Oeste 0 914.5 0.7 36
2019-06-06 10:00:00 15.5 2 Norte 13 Norte 0 914.6 0.9 42
2019-06-06 09:00:00 12.9 6 Noroeste 13 Noroeste 0 914.2 0.6 46
2019-06-06 08:00:00 9.9 0 Calma 10 Norte 0 913.8 0.3 49
2019-06-06 07:00:00 9.6 7 Norte 16 Noroeste 0 913.7 -0.1 48
2019-06-06 06:00:00 10.3 12 Noroeste 18 Noroeste 0 913.6 -0.4 46
2019-06-06 05:00:00 9.7 2 Noroeste 15 Noroeste 0 913.5 -0.6 46
2019-06-06 04:00:00 10.7 13 Noroeste 18 Noroeste 0 913.8 -0.5 45
2019-06-06 03:00:00 10.5 4 Noroeste 15 Noroeste 0 914 0 43
2019-06-06 02:00:00 11.7 12 Noroeste 18 Noroeste 0 914.1 0.4 41
2019-06-06 01:00:00 12.5 9 Noroeste 17 Noroeste 0 914.3 1.1 39
2019-06-06 00:00:00 12.9 10 Noroeste 18 Noroeste 0 914 1.2 38
2019-06-05 23:00:00 13 9 Noroeste 12 Noroeste 0 913.7 1.1 38
2019-06-05 22:00:00 14.5 6 Norte 26 Noroeste 0 913.2 1 34
2019-06-05 21:00:00 16.7 14 Norte 31 Norte 0 912.8 1 31
2019-06-05 20:00:00 16.6 22 Norte 36 Noroeste 0 912.6 0.6 31
2019-06-05 19:00:00 17.2 19 Norte 47 Noroeste 0 912.2 -0.1 31
2019-06-05 18:00:00 18.8 18 Noroeste 48 Noroeste 0 911.8 -0.3 30
2019-06-05 17:00:00 18.2 28 Noroeste 49 Noroeste 0 912 -0.2 32
2019-06-05 16:00:00 19.1 27 Noroeste 51 Noroeste 0 912.3 0.2 35
2019-06-05 15:00:00 17.7 26 Noroeste 54 Noroeste 0 912.1 0.4 38
2019-06-05 14:00:00 16.2 24 Noroeste 51 Oeste 0 912.2 0.8 42
2019-06-05 13:00:00 15.5 29 Noroeste 49 Norte 0 912.1 0.8 44
2019-06-05 12:00:00 14.6 29 Noroeste 47 Noroeste 0 911.7 1.5 44
2019-06-05 11:00:00 14.2 28 Noroeste 61 Noroeste 0 911.4 2.1 46
2019-06-05 10:00:00 13 34 Noroeste 52 Oeste 0 911.3 2.4 58
2019-06-05 09:00:00 13.9 32 Noroeste 51 Noroeste 0 910.2 1.6 68
2019-06-05 08:00:00 12.6 26 Noroeste 45 Oeste 0 909.3 0.4 73
2019-06-05 07:00:00 13.6 21 Noroeste 33 Oeste 0 908.9 -0.2 82
2019-06-05 06:00:00 14.5 16 Noroeste 41 Oeste 0 908.6 -1.1 77
2019-06-05 05:00:00 15.6 17 Oeste 34 Oeste 0 908.9 -0.9 65
2019-06-05 04:00:00 16.1 12 Noroeste 31 Oeste 0 909.1 -0.7 62
2019-06-05 03:00:00 17.1 17 Noroeste 33 Oeste 0 909.7 -0.4 54
2019-06-05 02:00:00 17.1 10 Oeste 18 Oeste 0 909.8 -0.2 49
2019-06-05 01:00:00 17.9 2 Sudoeste 8 Oeste 0 909.8 0.1 46
2019-06-05 00:00:00 18.8 2 Sur 9 Sudoeste 0 910.1 0.7 44
2019-06-04 23:00:00 20.3 0 Calma 10 Sudoeste 0 910 0.6 42
2019-06-04 22:00:00 22 9 Sudoeste 24 Sudoeste 0 909.7 0.5 38
2019-06-04 21:00:00 24.8 13 Sudoeste 32 Oeste 0 909.4 -0.3 32
2019-06-04 20:00:00 27.7 21 Oeste 37 Oeste 0 909.4 -0.8 24
2019-06-04 19:00:00 29.6 20 Sudoeste 37 Noroeste 0 909.2 -1.9 25
2019-06-04 18:00:00 29.1 20 Noroeste 33 Noroeste 0 909.7 -1.7 22
2019-06-04 17:00:00 29.9 12 Oeste 36 Noroeste 0 910.2 -2.2 22
2019-06-04 16:00:00 29.2 12 Noroeste 29 Sudoeste 0 911.1 -1.9 24
2019-06-04 15:00:00 30.1 10 Sudoeste 25 Sudoeste 0 911.4 -2.3 26
2019-06-04 14:00:00 28.2 12 Oeste 27 Oeste 0 912.4 -1.4 28
2019-06-04 13:00:00 28 10 Sudoeste 22 Sudoeste 0 913 -1.3 30
2019-06-04 12:00:00 25.2 8 Noroeste 22 Noroeste 0 913.7 -0.6 34
2019-06-04 11:00:00 23.8 8 Noroeste 22 Noroeste 0 913.8 -0.1 38
2019-06-04 10:00:00 21.7 10 Noroeste 20 Oeste 0 914.3 0.3 40
2019-06-04 09:00:00 18.7 5 Oeste 11 Oeste 0 914.3 0.5 48
2019-06-04 08:00:00 15.4 0 Calma 6 Este 0 913.9 -0.1 52
2019-06-04 07:00:00 14.3 4 Sudeste 10 Sudeste 0 914 -0.5 53
2019-06-04 06:00:00 13.7 9 Sudeste 16 Este 0 913.8 -1 54
2019-06-04 05:00:00 14.2 12 Sudeste 15 Sudeste 0 914 -1.2 51
2019-06-04 04:00:00 14.9 10 Sudeste 16 Sudeste 0 914.5 -1.2 50
2019-06-04 03:00:00 15.9 12 Sudeste 18 Sudeste 0 914.8 -1.4 48
2019-06-04 02:00:00 16.9 8 Sur 28 Sur 0 915.2 -1.2 47
2019-06-04 01:00:00 17.6 15 Sur 32 Sudeste 0 915.7 -0.2 47
2019-06-04 00:00:00 18.1 15 Sudeste 27 Sur 0 916.2 0.6 45
2019-06-03 23:00:00 19.4 13 Sudeste 22 Sudeste 0 916.4 0.9 42
2019-06-03 22:00:00 20.5 10 Sur 25 Sudoeste 0 915.9 0.4 38
2019-06-03 21:00:00 23.5 18 Sudoeste 33 Sur 0 915.6 -0.2 32
2019-06-03 20:00:00 26.4 18 Sudoeste 31 Sudoeste 0 915.5 -0.3 29
2019-06-03 19:00:00 28.1 22 Sur 31 Sur 0 915.5 -1 26
2019-06-03 18:00:00 28.2 19 Sudoeste 37 Sudoeste 0 915.8 -1.4 25
2019-06-03 17:00:00 32.2 11 Sudoeste 27 Sudoeste 0 915.8 -1.8 24
2019-06-03 16:00:00 29.9 9 Sur 26 Oeste 0 916.5 -1.7 25
2019-06-03 15:00:00 31.1 12 Sur 23 Sudoeste 0 917.2 -1.1 25
2019-06-03 14:00:00 29.8 8 Oeste 25 Sudoeste 0 917.6 -1 26
2019-06-03 13:00:00 28.5 9 Sur 21 Sudoeste 0 918.2 -0.6 28
2019-06-03 12:00:00 26.4 8 Sudoeste 15 Sudoeste 0 918.3 -0.1 32
2019-06-03 11:00:00 24.5 8 Sur 15 Sudeste 0 918.6 0.5 36
2019-06-03 10:00:00 20.8 6 Sudeste 12 Sudeste 0 918.8 0.8 42
2019-06-03 09:00:00 17.7 10 Sudeste 17 Sudeste 0 918.4 0.8 45
2019-06-03 08:00:00 13.6 12 Este 16 Este 0 918.1 0.1 49
2019-06-03 07:00:00 12.9 8 Este 14 Sudeste 0 918 0.1 48
2019-06-03 06:00:00 12.6 9 Sudeste 17 Sudeste 0 917.6 -0.5 47
2019-06-03 05:00:00 12.5 9 Sudeste 17 Sudeste 0 918 -0.7 47
2019-06-03 04:00:00 13.1 14 Sudeste 26 Este 0 917.9 -1.3 46
2019-06-03 03:00:00 13.5 17 Sudeste 26 Sudeste 0 918.1 -1.1 46
2019-06-03 02:00:00 14.1 13 Sudeste 19 Sudeste 0 918.7 -0.3 43
2019-06-03 01:00:00 15 10 Sudeste 17 Sur 0 919.2 0.6 41
2019-06-03 00:00:00 16.7 13 Sudeste 22 Sudeste 0 919.2 1.1 36
2019-06-02 23:00:00 17.9 14 Sudeste 22 Sur 0 919 1.3 34
2019-06-02 22:00:00 19.7 15 Sur 23 Sur 0 918.6 1.3 32
2019-06-02 21:00:00 22.3 11 Sur 28 Sur 0 918.1 0.4 28
2019-06-02 20:00:00 25.7 20 Sur 28 Sur 0 917.7 -0.2 25
2019-06-02 19:00:00 28.3 14 Sudoeste 28 Sudoeste 0 917.3 -0.9 25
2019-06-02 18:00:00 29.3 13 Sur 27 Sudoeste 0 917.7 -1.1 25
2019-06-02 17:00:00 29.7 13 Sudoeste 27 Sudoeste 0 917.9 -1.4 25
2019-06-02 16:00:00 28.8 4 Nordeste 37 Norte 0 918.2 -1.7 25
2019-06-02 15:00:00 28.5 9 Sudoeste 26 Sudoeste 0 918.8 -1.3 26
2019-06-02 14:00:00 27.5 11 Sudoeste 22 Sudoeste 0 919.3 -0.9 28
2019-06-02 13:00:00 25.9 12 Sur 23 Sudoeste 0 919.9 -0.4 30
2019-06-02 12:00:00 24.3 10 Sur 21 Sur 0 920.1 0.2 32
2019-06-02 11:00:00 22.1 11 Sur 17 Sur 0 920.2 0.6 36
2019-06-02 10:00:00 19.4 9 Sur 15 Sur 0 920.3 0.9 40
2019-06-02 09:00:00 15.6 11 Sudeste 18 Sudeste 0 919.9 0.7 47
2019-06-02 08:00:00 11.6 13 Sudeste 21 Sudeste 0 919.6 0.3 51
2019-06-02 07:00:00 10.5 13 Sudeste 21 Sudeste 0 919.4 -0.3 52
2019-06-02 06:00:00 10.6 14 Sudeste 22 Sudeste 0 919.2 -1 52
2019-06-02 05:00:00 10.8 11 Sudeste 18 Sudeste 0 919.3 -1.3 53
2019-06-02 04:00:00 10.9 11 Sudeste 16 Sudeste 0 919.7 -1 54
2019-06-02 03:00:00 11.5 12 Sudeste 17 Sudeste 0 920.2 -0.6 52
2019-06-02 02:00:00 12.1 14 Sudeste 18 Sudeste 0 920.6 0 51
2019-06-02 01:00:00 12.8 15 Sudeste 19 Este 0 920.7 0.7 48
2019-06-02 00:00:00 13.9 14 Sudeste 21 Sudeste 0 920.8 1.1 44
2019-06-01 23:00:00 15.4 13 Sudeste 21 Sur 0 920.6 1.2 40
2019-06-01 22:00:00 17.5 13 Sur 23 Sur 0 920 0.8 35
2019-06-01 21:00:00 20.7 16 Sur 30 Sur 0 919.7 0.4 29
2019-06-01 20:00:00 23.7 19 Sur 30 Sur 0 919.4 -0.2 26
2019-06-01 19:00:00 26.6 17 Sudeste 35 Sur 0 919.2 -0.8 24
2019-06-01 18:00:00 28.5 15 Sudeste 31 Sudeste 0 919.3 -1.2 24
2019-06-01 17:00:00 28.5 11 Sudeste 28 Sudeste 0 919.6 -1.2 24
2019-06-01 16:00:00 28.8 8 Sur 31 Sur 0 920 -1.6 23
2019-06-01 15:00:00 28.6 10 Sudeste 32 Sudeste 0 920.5 -1.4 23
2019-06-01 14:00:00 26.8 3 Sudeste 24 Sur 0 920.8 -1.1 24
2019-06-01 13:00:00 26.4 10 Sudeste 22 Sur 0 921.6 -0.6 25
2019-06-01 12:00:00 24.3 5 Sudeste 18 Sudeste 0 921.9 0 27
2019-06-01 11:00:00 23.2 7 Sur 15 Sudeste 0 921.9 0.4 32
2019-06-01 10:00:00 20.7 7 Sudeste 15 Sudeste 0 922.2 0.8 47
2019-06-01 09:00:00 15.7 10 Sudeste 14 Este 0 921.9 0.9 66
2019-06-01 08:00:00 11.2 12 Este 15 Sudeste 0 921.5 0.3 79
2019-06-01 07:00:00 10.1 9 Sudeste 17 Este 0 921.4 0 81
2019-06-01 06:00:00 9.8 15 Sudeste 19 Sudeste 0 921 -0.6 79
2019-06-01 05:00:00 10.2 12 Sudeste 17 Sudeste 0 921.2 -1 78
2019-06-01 04:00:00 10.3 14 Sudeste 19 Sudeste 0 921.4 -1.1 75
2019-06-01 03:00:00 10.9 12 Sudeste 18 Sudeste 0 921.6 -1.1 73
2019-06-01 02:00:00 11.7 13 Sudeste 17 Sudeste 0 922.2 -0.4 70
2019-06-01 01:00:00 12.8 10 Sudeste 17 Sur 0 922.5 0.6 66
2019-06-01 00:00:00 13.4 13 Sudeste 21 Sudeste 0 922.7 1.3 62
2019-05-31 23:00:00 15 13 Sudeste 24 Sur 0 922.6 1.4 54
2019-05-31 22:00:00 17.2 15 Sur 24 Sur 0 921.9 0.7 46
2019-05-31 21:00:00 20 18 Sur 30 Sur 0 921.4 0.1 38
2019-05-31 20:00:00 22.8 18 Sur 30 Sur 0 921.2 -0.5 32
2019-05-31 19:00:00 25 18 Sur 31 Sur 0 921.2 -1 28
2019-05-31 18:00:00 26.7 13 Sur 30 Sur 0 921.3 -1.2 26
2019-05-31 17:00:00 26.8 16 Sur 29 Sur 0 921.7 -1.3 26
2019-05-31 16:00:00 26.7 10 Sudeste 31 Sur 0 922.2 -1.2 26
2019-05-31 15:00:00 25.8 11 Sudeste 33 Sur 0 922.5 -1.3 29
2019-05-31 14:00:00 24.5 11 Sur 30 Sudeste 0 923 -0.9 31
2019-05-31 13:00:00 23.7 14 Sur 30 Sudeste 0 923.4 -0.4 32
2019-05-31 12:00:00 22.4 13 Sur 27 Sur 0 923.8 0.3 34
2019-05-31 11:00:00 20.1 16 Sur 28 Sur 0 923.9 0.9 39
2019-05-31 10:00:00 18.1 17 Sur 24 Sur 0 923.8 1.3 46
2019-05-31 09:00:00 14.9 12 Sudeste 19 Sudeste 0 923.5 1.1 69
2019-05-31 08:00:00 10.7 16 Este 19 Sudeste 0 923 0.5 82
2019-05-31 07:00:00 9.5 14 Este 21 Sudeste 0 922.5 -0.2 84
2019-05-31 06:00:00 9.1 18 Este 25 Sudeste 0 922.4 -0.7 83
2019-05-31 05:00:00 9.6 15 Sudeste 21 Sudeste 0 922.5 -1.2 80
2019-05-31 04:00:00 10 12 Sudeste 17 Sudeste 0 922.7 -1.1 78
2019-05-31 03:00:00 10.4 12 Sudeste 16 Sudeste 0 923.1 -1.1 73
2019-05-31 02:00:00 11.3 13 Sudeste 17 Sudeste 0 923.7 -0.1 69
2019-05-31 01:00:00 11.8 13 Sudeste 18 Sudeste 0 923.8 0.6 65
2019-05-31 00:00:00 12.9 13 Sudeste 20 Sudeste 0 924.2 1.7 59
2019-05-30 23:00:00 14 13 Sudeste 23 Sur 0 923.8 1.6 53
2019-05-30 22:00:00 15.8 16 Sur 30 Sur 0 923.2 1.1 46
2019-05-30 21:00:00 18.7 19 Sur 28 Sur 0 922.5 0.2 39
2019-05-30 20:00:00 21.7 16 Sur 28 Sudoeste 0 922.2 -0.4 35
2019-05-30 19:00:00 24.1 15 Sur 29 Sudoeste 0 922.1 -0.7 29
2019-05-30 18:00:00 25.6 9 Sudeste 30 Sur 0 922.3 -1 28
2019-05-30 17:00:00 25.6 8 Sudeste 24 Sudeste 0 922.6 -1.1 28
2019-05-30 16:00:00 25.1 12 Sur 28 Sur 0 922.8 -1.1 29
2019-05-30 15:00:00 23.8 11 Sur 31 Sur 0 923.3 -0.8 30
2019-05-30 14:00:00 23 13 Sur 33 Este 0 923.7 -0.5 32
2019-05-30 13:00:00 21.6 13 Sur 30 Sur 0 923.9 0.1 35
2019-05-30 12:00:00 20.6 14 Sudeste 29 Sudeste 0 924.1 0.8 36
2019-05-30 11:00:00 19.5 13 Sudeste 23 Sudeste 0 924.2 1.4 42
2019-05-30 10:00:00 16.7 12 Sur 20 Sur 0 923.8 1.3 51
2019-05-30 09:00:00 12.6 6 Sudeste 12 Sudeste 0 923.3 1.4 67
2019-05-30 08:00:00 8.8 6 Sudeste 13 Sudeste 0 922.8 0.8 76
2019-05-30 07:00:00 7.8 7 Sudeste 12 Sudeste 0 922.5 0.4 74
2019-05-30 06:00:00 7.9 9 Sudeste 14 Sudeste 0 921.9 -0.4 73
2019-05-30 05:00:00 8.4 8 Sudeste 15 Sudeste 0 922 -0.6 72
2019-05-30 04:00:00 8.7 8 Sudeste 13 Sudeste 0 922.1 -0.4 72
2019-05-30 03:00:00 9.1 9 Sudeste 15 Sudeste 0 922.3 -0.1 69
2019-05-30 02:00:00 9.8 11 Sudeste 14 Sudeste 0 922.6 0.8 65
2019-05-30 01:00:00 10.3 12 Sudeste 17 Sudeste 0 922.5 1.4 62
2019-05-30 00:00:00 11.7 13 Sudeste 18 Sudeste 0 922.4 2.3 59
2019-05-29 23:00:00 13.6 14 Sudeste 22 Sudeste 0 921.8 2.2 52
2019-05-29 22:00:00 15.9 17 Sudeste 26 Sudeste 0 921.1 1.9 39
2019-05-29 21:00:00 21.2 8 Nordeste 19 Norte 0 920.1 0.8 27
2019-05-29 20:00:00 21.7 13 Norte 26 Norte 0 919.6 0 27
2019-05-29 19:00:00 21.9 13 Norte 31 Norte 0 919.2 -0.6 26
2019-05-29 18:00:00 22.1 15 Norte 30 Norte 0 919.3 -0.8 25
2019-05-29 17:00:00 22.3 13 Nordeste 32 Norte 0 919.6 -0.7 25
2019-05-29 16:00:00 20.2 20 Norte 40 Norte 0 919.8 -0.6 26
2019-05-29 15:00:00 19.1 20 Norte 34 Norte 0 920.1 -0.2 28
2019-05-29 14:00:00 18.1 21 Norte 39 Norte 0 920.3 0.3 31
2019-05-29 13:00:00 17.4 9 Norte 31 Norte 0 920.4 0.6 35
2019-05-29 12:00:00 15.2 14 Norte 32 Nordeste 0 920.3 1.4 39
2019-05-29 11:00:00 12.9 21 Norte 36 Nordeste 0 920 1.2 46
2019-05-29 10:00:00 11.2 19 Norte 36 Nordeste 0 919.8 1.6 52
2019-05-29 09:00:00 9.7 15 Norte 33 Norte 0 918.9 1.4 59
2019-05-29 08:00:00 8.3 17 Norte 31 Nordeste 0 918.8 1.1 65
2019-05-29 07:00:00 8 3 Nordeste 29 Nordeste 0 918.2 0.6 65
2019-05-29 06:00:00 8.7 18 Nordeste 34 Nordeste 0 917.5 -0.1 63
2019-05-29 05:00:00 9.7 16 Nordeste 34 Nordeste 0 917.7 -0.2 62
2019-05-29 04:00:00 10.5 16 Nordeste 29 Nordeste 0 917.6 0 67
2019-05-29 03:00:00 11.2 4 Nordeste 9 Nordeste 0 917.6 0.5 65
2019-05-29 02:00:00 11 3 Norte 14 Nordeste 0 917.9 1.3 66
2019-05-29 01:00:00 12.5 8 Este 23 Este 0 917.6 1.7 64
2019-05-29 00:00:00 13.8 10 Este 22 Este 0 917.1 1.7 59
2019-05-28 23:00:00 16.2 11 Nordeste 24 Nordeste 0 916.6 2.1 37
2019-05-28 22:00:00 17.8 14 Norte 28 Norte 0 915.9 1.9 26
2019-05-28 21:00:00 20.4 19 Norte 38 Noroeste 0 915.4 1.8 23
2019-05-28 20:00:00 23.1 18 Norte 36 Noroeste 0 914.5 1 21
2019-05-28 19:00:00 23.6 19 Norte 40 Noroeste 0 914 0.4 22
2019-05-28 18:00:00 24.3 22 Noroeste 44 Noroeste 0 913.6 -0.4 25
2019-05-28 17:00:00 24.8 19 Noroeste 41 Norte 0 913.5 -0.9 28
2019-05-28 16:00:00 24.3 15 Norte 44 Norte 0 913.6 -1.2 31
2019-05-28 15:00:00 24 16 Noroeste 35 Noroeste 0 914 -0.5 35
2019-05-28 14:00:00 22 15 Norte 32 Norte 0 914.4 -0.1 38
2019-05-28 13:00:00 21.7 13 Norte 26 Norte 0 914.8 0.4 38
2019-05-28 12:00:00 20.5 9 Norte 22 Norte 0 914.5 0.6 44
2019-05-28 11:00:00 20.1 3 Sudoeste 15 Sudoeste 0 914.5 1.1 48
2019-05-28 10:00:00 18.2 5 Sur 11 Sudeste 0 914.4 1.5 53
2019-05-28 09:00:00 13.8 0 Calma 9 Sur 0 913.9 1.1 75
2019-05-28 08:00:00 10.8 0 Calma 4 Sur 0 913.4 0.6 85
2019-05-28 07:00:00 10.3 0 Calma 7 Sudeste 0 912.9 0.2 86
2019-05-28 06:00:00 10.4 0 Calma 11 Sur 0 912.8 0.1 83
2019-05-28 05:00:00 12.3 0 Calma 16 Nordeste 0 912.8 0.2 75
2019-05-28 04:00:00 13.9 9 Este 22 Este 0 912.7 -0.2 70
2019-05-28 03:00:00 13.8 13 Este 24 Este 0 912.7 -0.1 72
2019-05-28 02:00:00 13.9 15 Este 26 Este 0 912.6 -0.1 71
2019-05-28 01:00:00 14.5 16 Este 24 Este 0 912.9 1 68
2019-05-28 00:00:00 15.4 12 Este 27 Este 0 912.8 1.1 62
2019-05-27 23:00:00 17.3 16 Este 29 Sudeste 0 912.7 1.1 43
2019-05-27 22:00:00 18.4 4 Nordeste 15 Noroeste 0 911.9 0.5 36
2019-05-27 21:00:00 22 11 Noroeste 26 Noroeste 0 911.7 0.1 30
2019-05-27 20:00:00 23.6 16 Noroeste 31 Norte 0 911.6 -0.2 29
2019-05-27 19:00:00 24.5 18 Noroeste 39 Norte 0 911.4 -0.9 28
2019-05-27 18:00:00 23.6 19 Noroeste 36 Norte 0 911.6 -1.3 29
2019-05-27 17:00:00 23.8 19 Noroeste 36 Noroeste 0 911.8 -1.8 27
2019-05-27 16:00:00 24.5 14 Noroeste 33 Noroeste 0 912.3 -2 28
2019-05-27 15:00:00 23.5 13 Norte 35 Oeste 0 912.9 -1.5 29
2019-05-27 14:00:00 22 14 Norte 30 Noroeste 0 913.6 -0.8 32
2019-05-27 13:00:00 20.4 14 Noroeste 26 Noroeste 0 914.3 -0.6 40
2019-05-27 12:00:00 18.7 12 Noroeste 19 Norte 0 914.4 0.3 51
2019-05-27 11:00:00 17.5 8 Noroeste 19 Noroeste 0 914.4 0.6 58
2019-05-27 10:00:00 14.6 12 Norte 18 Norte 0 914.9 1.2 68
2019-05-27 09:00:00 13 7 Sudoeste 13 Sudoeste 0 914.1 0.3 82
2019-05-27 08:00:00 9.5 2 Nordeste 6 Nordeste 0 913.8 -0.2 87
2019-05-27 07:00:00 9.9 0 Calma 7 Norte 0 913.7 -0.8 84
2019-05-27 06:00:00 10.6 6 Norte 8 Norte 0 913.8 -1.1 82
2019-05-27 05:00:00 10.9 2 Este 5 Este 0 914 -1.2 79
2019-05-27 04:00:00 11.1 0 Calma 17 Este 0 914.5 -1 79
2019-05-27 03:00:00 11.3 11 Este 18 Sudeste 0 914.9 -1 80
2019-05-27 02:00:00 11.7 10 Este 16 Este 0 915.2 -0.5 77
2019-05-27 01:00:00 11.8 12 Este 18 Este 0 915.5 0.2 76
2019-05-27 00:00:00 12.7 12 Este 20 Sudeste 0 915.9 1 70
2019-05-26 23:00:00 13.6 15 Este 19 Este 0 915.7 1.1 62
2019-05-26 22:00:00 15.9 9 Sudeste 22 Sudeste 0 915.3 0.6 52
2019-05-26 21:00:00 20.7 5 Nordeste 15 Noroeste 0 914.9 0 27
2019-05-26 20:00:00 22.1 7 Noroeste 19 Noroeste 0 914.6 -0.8 27
2019-05-26 19:00:00 22.6 8 Norte 22 Norte 0 914.7 -0.9 27
2019-05-26 18:00:00 22.8 3 Norte 25 Norte 0 914.9 -1.2 28
2019-05-26 17:00:00 22.2 6 Norte 28 Noroeste 0 915.4 -1.1 28
2019-05-26 16:00:00 21.2 10 Norte 26 Oeste 0 915.6 -1.3 30
2019-05-26 15:00:00 20.3 9 Noroeste 29 Noroeste 0 916.1 -1 35
2019-05-26 14:00:00 19.7 10 Noroeste 28 Noroeste 0 916.5 -0.5 42
2019-05-26 13:00:00 18.6 10 Noroeste 28 Noroeste 0 916.9 -0.2 46
2019-05-26 12:00:00 17.6 10 Noroeste 20 Noroeste 0 917.1 0.3 49
2019-05-26 11:00:00 16.7 6 Noroeste 15 Oeste 0 917 0.4 52
2019-05-26 10:00:00 15.7 2 Noroeste 13 Sudoeste 0 917.1 0.7 62
2019-05-26 09:00:00 13.3 6 Sudoeste 10 Sudoeste 0 916.8 0.4 74
2019-05-26 08:00:00 10.4 0 Calma 7 Nordeste 0 916.6 0 83
2019-05-26 07:00:00 9.6 3 Este 7 Norte 0 916.4 -0.4 82
2019-05-26 06:00:00 9.4 5 Norte 6 Norte 0 916.4 -0.8 82
2019-05-26 05:00:00 10.1 5 Este 7 Este 0 916.6 -1.2 79
2019-05-26 04:00:00 10.5 3 Sudeste 8 Este 0 916.8 -1.2 77
2019-05-26 03:00:00 10.8 7 Sudeste 10 Sudeste 0 917.2 -0.6 73
2019-05-26 02:00:00 11.8 7 Sudeste 11 Sudeste 0 917.8 0 71
2019-05-26 01:00:00 11.5 8 Sudeste 14 Sur 0 918 0.7 70
2019-05-26 00:00:00 11.9 12 Este 17 Este 0 917.8 0.9 67
2019-05-25 23:00:00 13 12 Este 18 Este 0 917.8 1.2 58
2019-05-25 22:00:00 14.1 6 Nordeste 8 Este 0 917.3 1 47
2019-05-25 21:00:00 18.2 3 Nordeste 16 Este 0 916.9 0.4 39
2019-05-25 20:00:00 19.7 5 Este 22 Este 0 916.6 0.1 37
2019-05-25 19:00:00 20.5 9 Este 22 Este 0 916.3 -0.3 35
2019-05-25 18:00:00 20.4 12 Nordeste 25 Sudeste 0 916.5 -0.2 35
2019-05-25 17:00:00 18.9 9 Nordeste 25 Este 0 916.5 -0.2 39
2019-05-25 16:00:00 18.3 10 Nordeste 27 Nordeste 0 916.6 -0.3 38
2019-05-25 15:00:00 17.8 10 Norte 26 Nordeste 0 916.7 -0.3 40
2019-05-25 14:00:00 19 11 Nordeste 26 Nordeste 0 916.7 0.1 40
2019-05-25 13:00:00 16.1 12 Norte 26 Nordeste 0 916.9 0.9 46
2019-05-25 12:00:00 15.2 13 Norte 32 Norte 0 917 1.6 51
2019-05-25 11:00:00 12.8 14 Norte 26 Nordeste 0 916.6 1.8 61
2019-05-25 10:00:00 11.5 13 Norte 28 Norte 0 916 1.6 68
2019-05-25 09:00:00 9.7 19 Norte 32 Norte 0 915.4 0.9 74
2019-05-25 08:00:00 8.6 17 Norte 29 Norte 0 914.8 0.5 78
2019-05-25 07:00:00 8.3 21 Norte 30 Norte 0 914.4 -0.3 81
2019-05-25 06:00:00 9.2 10 Norte 28 Norte 0 914.5 -0.3 76
2019-05-25 05:00:00 9.1 15 Norte 26 Norte 0 914.3 -0.9 78
2019-05-25 04:00:00 8.7 6 Nordeste 17 Nordeste 0 914.7 -0.8 81
2019-05-25 03:00:00 8.9 6 Norte 12 Nordeste 0 914.8 -0.7 88
2019-05-25 02:00:00 10.3 0 Calma 4 Sur 0 915.2 0 89
2019-05-25 01:00:00 10.4 0 Calma 8 Nordeste 0 915.5 0.6 89
2019-05-25 00:00:00 10.2 5 Este 10 Este 0 915.5 1 87
2019-05-24 23:00:00 10.7 6 Este 13 Sudeste 0 915.2 1.1 86
2019-05-24 22:00:00 11.3 9 Sudeste 19 Sudeste 0 914.9 1.3 86
2019-05-24 21:00:00 12.1 15 Sudeste 25 Sudeste 0 914.5 1.3 82
2019-05-24 20:00:00 13.2 16 Sudeste 30 Sudeste 0 914.1 1 78
2019-05-24 19:00:00 14.6 22 Este 36 Sudeste 0 913.6 1 75
2019-05-24 18:00:00 14.9 21 Sudeste 35 Sudeste 0.4 913.2 0.6 75
2019-05-24 17:00:00 16 20 Este 34 Este 0.1 913.1 0.1 68
2019-05-24 16:00:00 19.4 21 Sudeste 37 Sudeste 0 912.6 -1.3 46
2019-05-24 15:00:00 23.1 8 Sudeste 24 Sudeste 0 912.6 -1.1 42
2019-05-24 14:00:00 23.2 14 Sudeste 26 Este 0 913 -0.8 43
2019-05-24 13:00:00 19.7 13 Sudeste 28 Este 0 913.9 0.5 47
2019-05-24 12:00:00 18.9 4 Este 19 Este 0 913.7 0.5 44
2019-05-24 11:00:00 17.4 10 Norte 25 Norte 0 913.8 0.5 45
2019-05-24 10:00:00 16.1 12 Norte 24 Norte 0 913.4 0.2 48
2019-05-24 09:00:00 15.8 9 Noroeste 21 Noroeste 0 913.2 -0.2 47
2019-05-24 08:00:00 15.3 11 Noroeste 21 Noroeste 0 913.3 -0.3 47
2019-05-24 07:00:00 15 2 Oeste 11 Noroeste 0 913.2 -0.6 47
2019-05-24 06:00:00 13.8 3 Sudeste 8 Sudeste 0 913.4 -0.8 49
2019-05-24 05:00:00 13.4 0 Calma 10 Sudeste 0 913.6 -1.4 48
2019-05-24 04:00:00 14 8 Sudeste 11 Sudeste 0 913.8 -1.6 46
2019-05-24 03:00:00 14.5 6 Sudeste 13 Sudeste 0 914.2 -1.4 45
2019-05-24 02:00:00 15.3 9 Sur 18 Sur 0 915 -0.7 42
2019-05-24 01:00:00 16.6 9 Sur 21 Sur 0 915.4 0.1 41
2019-05-24 00:00:00 17.2 11 Sur 18 Sur 0 915.6 0.6 40
2019-05-23 23:00:00 17.4 9 Sur 14 Sudoeste 0 915.7 0.6 40
2019-05-23 22:00:00 18.4 2 Sur 19 Sur 0 915.3 0.1 39
2019-05-23 21:00:00 20.5 15 Sur 28 Sur 0 915 -0.5 36
2019-05-23 20:00:00 22.8 13 Sudoeste 22 Sudoeste 0 915.1 -0.8 31
2019-05-23 19:00:00 24.7 10 Oeste 20 Sudoeste 0 915.2 -1.2 29
2019-05-23 18:00:00 25.3 6 Sudoeste 19 Oeste 0 915.5 -1.5 28
2019-05-23 17:00:00 24.8 11 Noroeste 33 Noroeste 0 915.9 -1.4 29
2019-05-23 16:00:00 25 8 Oeste 27 Noroeste 0 916.4 -1.4 29
2019-05-23 15:00:00 24.9 9 Noroeste 26 Noroeste 0 917 -1.3 29
2019-05-23 14:00:00 23.9 8 Noroeste 20 Noroeste 0 917.3 -1.4 31
2019-05-23 13:00:00 22.9 6 Noroeste 18 Norte 0 917.8 -0.8 36
2019-05-23 12:00:00 21.4 6 Oeste 13 Oeste 0 918.3 0.2 41
2019-05-23 11:00:00 18 4 Sur 11 Sudeste 0 918.7 1 48
2019-05-23 10:00:00 15 7 Sudeste 10 Sudeste 0 918.6 1.2 56
2019-05-23 09:00:00 13.2 5 Sudeste 12 Este 0 918.1 0.9 61
2019-05-23 08:00:00 11.7 7 Sudeste 11 Este 0 917.7 0.5 65
2019-05-23 07:00:00 11.2 7 Sudeste 13 Sudeste 0 917.4 0.1 65
2019-05-23 06:00:00 10.8 8 Sudeste 18 Sudeste 0 917.2 -0.4 66
2019-05-23 05:00:00 10.5 13 Sudeste 18 Sudeste 0 917.2 -0.6 66
2019-05-23 04:00:00 11.1 13 Sudeste 18 Este 0 917.3 -0.6 63
2019-05-23 03:00:00 11.8 12 Sudeste 23 Sudeste 0 917.6 -0.3 59
2019-05-23 02:00:00 12.3 15 Sudeste 23 Sudeste 0 917.8 -0.2 57
2019-05-23 01:00:00 13.4 11 Sudeste 16 Sur 0 917.9 0.3 53
2019-05-23 00:00:00 14.1 6 Sudeste 15 Sur 0 917.9 0.9 51
2019-05-22 23:00:00 14.7 10 Sur 20 Sur 0 918 1.3 50
2019-05-22 22:00:00 15.7 2 Sur 28 Sur 0 917.6 1.2 47
2019-05-22 21:00:00 17.8 18 Sudoeste 33 Sur 0 917 0.4 41
2019-05-22 20:00:00 21 18 Sudoeste 32 Sudoeste 0 916.7 0.1 32
2019-05-22 19:00:00 24.2 11 Sudoeste 22 Sudoeste 0 916.4 -0.5 28
2019-05-22 18:00:00 24.5 11 Noroeste 27 Sudoeste 0 916.6 -0.7 27
2019-05-22 17:00:00 25.4 9 Sudoeste 28 Oeste 0 916.6 -1.1 26
2019-05-22 16:00:00 25.6 10 Oeste 27 Oeste 0 916.9 -1.1 26
2019-05-22 15:00:00 24.6 5 Sudeste 23 Sudoeste 0 917.3 -1 29
2019-05-22 14:00:00 22.6 9 Sudoeste 23 Sur 0 917.7 -0.5 35
2019-05-22 13:00:00 21.9 11 Sur 26 Sur 0 918 -0.1 38
2019-05-22 12:00:00 20.3 11 Sur 23 Sudoeste 0 918.3 1 44
2019-05-22 11:00:00 18.7 10 Sur 17 Sur 0 918.2 1.3 48
2019-05-22 10:00:00 16.4 10 Sur 17 Sudeste 0 918.1 1.7 60
2019-05-22 09:00:00 12.9 8 Sudeste 15 Sudeste 0 917.3 1 79
2019-05-22 08:00:00 9.8 10 Sudeste 15 Este 0 916.9 0.8 86
2019-05-22 07:00:00 9.2 9 Sudeste 15 Sudeste 0 916.4 0.2 84
2019-05-22 06:00:00 9.7 9 Sudeste 13 Sudeste 0 916.3 -0.1 84
2019-05-22 05:00:00 9.4 8 Sudeste 14 Sudeste 0 916.1 -0.4 84
2019-05-22 04:00:00 9.3 10 Sudeste 15 Sudeste 0 916.2 -0.3 82
2019-05-22 03:00:00 10.2 11 Sudeste 17 Este 0 916.4 -0.4 80
2019-05-22 02:00:00 10.2 14 Sudeste 21 Sudeste 0 916.5 -0.2 81
2019-05-22 01:00:00 10.3 15 Este 20 Este 0 916.5 0.5 82
2019-05-22 00:00:00 10.9 15 Este 20 Sudeste 0 916.8 0.9 85
2019-05-21 23:00:00 10.9 14 Sudeste 20 Sudeste 0 916.7 1.4 83
2019-05-21 22:00:00 12.1 13 Este 28 Sudeste 0 916 1.4 66
2019-05-21 21:00:00 13.6 18 Sudeste 28 Sur 0 915.9 1.5 56
2019-05-21 20:00:00 16.4 16 Sudoeste 36 Sur 0.1 915.3 0.7 47
2019-05-21 19:00:00 18.1 10 Sudoeste 18 Sudoeste 0 914.6 0 39
2019-05-21 18:00:00 19.5 6 Sudeste 31 Sudoeste 0 914.4 -0.5 42
2019-05-21 17:00:00 13.3 18 Oeste 31 Oeste 0.7 914.6 -0.5 62
2019-05-21 16:00:00 18.8 10 Sudoeste 21 Sudoeste 0 914.6 -1 35
2019-05-21 15:00:00 19.8 9 Este 23 Sudeste 0 914.9 -0.7 35
2019-05-21 14:00:00 20.3 9 Sudeste 22 Este 0 915.1 -0.2 34
2019-05-21 13:00:00 18.2 6 Sudoeste 26 Sudeste 0 915.6 0.6 39
2019-05-21 12:00:00 18.6 12 Sur 22 Sur 0 915.6 1.1 42
2019-05-21 11:00:00 16.1 14 Sur 20 Sur 0 915.3 1.4 62
2019-05-21 10:00:00 13.7 11 Sudeste 18 Sudeste 0 915 1.8 78
2019-05-21 09:00:00 12.1 8 Sudeste 14 Sudeste 0 914.5 1.6 84
2019-05-21 08:00:00 10.7 10 Sudeste 17 Sudeste 0 913.9 0.8 84
2019-05-21 07:00:00 10.4 10 Este 17 Sudeste 0 913.2 0.2 83
2019-05-21 06:00:00 11 0 Calma 9 Norte 0 912.9 -0.1 76
2019-05-21 05:00:00 11.2 3 Sudeste 13 Oeste 0 913.1 -0.5 79
2019-05-21 04:00:00 11.6 6 Sur 16 Sur 0 913 -0.5 75
2019-05-21 03:00:00 11.9 10 Sudeste 19 Sur 0 913 -0.4 74
2019-05-21 02:00:00 11.8 11 Sur 19 Sudeste 0.1 913.6 0.2 75
2019-05-21 01:00:00 12.3 10 Sur 31 Sudoeste 0.3 913.5 0.7 67
2019-05-21 00:00:00 12.4 3 Sur 13 Sur 0 913.4 0.9 66
2019-05-20 23:00:00 12.9 2 Sur 14 Sur 0 913.4 1.6 63
2019-05-20 22:00:00 14.2 5 Sudoeste 20 Sudoeste 0 912.8 1 56
2019-05-20 21:00:00 16.5 14 Sudoeste 23 Sudoeste 0 912.5 0.4 46
2019-05-20 20:00:00 20.1 10 Oeste 23 Oeste 0 911.8 -0.2 30
2019-05-20 19:00:00 18.7 4 Norte 26 Noroeste 0 911.8 -0.9 32
2019-05-20 18:00:00 18.8 8 Noroeste 30 Noroeste 0 912.1 -1 32
2019-05-20 17:00:00 20.2 8 Noroeste 19 Norte 0 912 -1.6 32
2019-05-20 16:00:00 18.3 13 Noroeste 25 Noroeste 0 912.7 -0.9 32
2019-05-20 15:00:00 18.8 6 Noroeste 29 Noroeste 0 913.1 -0.5 32
2019-05-20 14:00:00 18.2 12 Noroeste 25 Noroeste 0 913.6 0.2 32
2019-05-20 13:00:00 15.6 12 Noroeste 23 Noroeste 0 913.6 0.6 40
2019-05-20 12:00:00 13.4 10 Noroeste 18 Noroeste 0 913.6 1.3 45
2019-05-20 11:00:00 12.5 8 Noroeste 19 Oeste 0 913.4 1.8 49
2019-05-20 10:00:00 12.5 9 Noroeste 21 Noroeste 0 913 1.9 57
2019-05-20 09:00:00 10.5 9 Noroeste 21 Noroeste 0 912.3 1.4 63
2019-05-20 08:00:00 7.1 5 Norte 6 Norte 0 911.6 0.8 67
2019-05-20 07:00:00 6.9 0 Calma 7 Oeste 0 911.1 -0.1 63
2019-05-20 06:00:00 7.9 3 Este 21 Este 0 910.9 -0.9 61
2019-05-20 05:00:00 8 16 Este 21 Este 0 910.8 -1.2 60
2019-05-20 04:00:00 7.9 13 Este 16 Este 0 911.2 -0.8 59
2019-05-20 03:00:00 8.5 12 Este 19 Sudeste 0 911.8 0.1 54
2019-05-20 02:00:00 9.2 11 Este 19 Sudeste 0 912 0.4 47
2019-05-20 01:00:00 9.2 13 Este 19 Este 0 912 0.5 43
2019-05-20 00:00:00 9.6 5 Nordeste 13 Nordeste 0 911.7 0.4 41
2019-05-19 23:00:00 11.5 10 Nordeste 15 Norte 0 911.6 0.6 38
2019-05-19 22:00:00 10.8 6 Norte 12 Norte 0 911.5 0.7 39
2019-05-19 21:00:00 13.6 8 Norte 26 Noroeste 0 911.3 0.6 34
2019-05-19 20:00:00 15.6 15 Norte 30 Norte 0 911 0 32
2019-05-19 19:00:00 15.7 19 Noroeste 35 Norte 0 910.8 -0.4 30
2019-05-19 18:00:00 16.3 19 Noroeste 35 Noroeste 0 910.7 -0.3 31
2019-05-19 17:00:00 15.9 18 Noroeste 36 Noroeste 0 911 -0.3 31
2019-05-19 16:00:00 16.1 17 Noroeste 35 Noroeste 0 911.2 -0.3 32
2019-05-19 15:00:00 16.2 15 Noroeste 36 Norte 0 911 -0.6 35
2019-05-19 14:00:00 15.6 15 Noroeste 31 Oeste 0 911.3 0.4 36
2019-05-19 13:00:00 13.8 11 Noroeste 28 Oeste 0 911.5 0.3 40
2019-05-19 12:00:00 13.5 11 Oeste 27 Oeste 0 911.6 1.1 42
2019-05-19 11:00:00 11.8 9 Norte 19 Noroeste 0 910.9 1 45
2019-05-19 10:00:00 10.7 8 Norte 15 Norte 0 911.2 1.6 46
2019-05-19 09:00:00 9.1 9 Norte 15 Norte 0 910.5 1.1 50
2019-05-19 08:00:00 6.3 4 Nordeste 14 Norte 0 909.9 0.5 52
2019-05-19 07:00:00 6 12 Norte 15 Norte 0 909.6 0.4 51
2019-05-19 06:00:00 6.9 9 Norte 13 Norte 0 909.4 -0.4 49
2019-05-19 05:00:00 6 7 Norte 11 Norte 0 909.4 -0.7 52
2019-05-19 04:00:00 5.9 0 Calma 4 Norte 0 909.2 -1.1 51
2019-05-19 03:00:00 5.8 0 Calma 6 Norte 0 909.8 -0.7 49
2019-05-19 02:00:00 6.8 6 Norte 9 Norte 0 910.1 -0.5 46
2019-05-19 01:00:00 6.8 7 Norte 10 Norte 0 910.3 -0.1 43
2019-05-19 00:00:00 8.4 9 Norte 18 Norte 0 910.5 0.3 39
2019-05-18 23:00:00 9.7 10 Noroeste 19 Noroeste 0 910.6 0.7 36
2019-05-18 22:00:00 10.6 9 Noroeste 22 Oeste 0 910.4 0.8 34
2019-05-18 21:00:00 12.2 14 Noroeste 31 Oeste 0 910.2 1 30
2019-05-18 20:00:00 14.2 20 Noroeste 42 Oeste 0 909.9 0.6 28
2019-05-18 19:00:00 14.8 22 Noroeste 44 Noroeste 0 909.6 0 29
2019-05-18 18:00:00 15 22 Noroeste 40 Norte 0 909.2 -0.3 31
2019-05-18 17:00:00 13.5 19 Noroeste 40 Noroeste 0 909.3 -0.4 35
2019-05-18 16:00:00 14.3 21 Noroeste 38 Oeste 0 909.6 -0.2 36
2019-05-18 15:00:00 15.1 22 Noroeste 42 Noroeste 0 909.5 0 36
2019-05-18 14:00:00 14 20 Noroeste 36 Oeste 0 909.7 0.7 42
2019-05-18 13:00:00 13.3 17 Noroeste 37 Oeste 0 909.8 1.1 47
2019-05-18 12:00:00 12.7 16 Noroeste 50 Noroeste 0 909.5 0.7 51
2019-05-18 11:00:00 11.5 15 Oeste 27 Oeste 0 909 0.7 55
2019-05-18 10:00:00 8.9 15 Noroeste 28 Noroeste 0 908.7 1 59
2019-05-18 09:00:00 8.6 10 Oeste 20 Oeste 0 908.8 1.4 59
2019-05-18 08:00:00 8.3 9 Oeste 23 Oeste 0 908.3 0.2 59
2019-05-18 07:00:00 8 12 Noroeste -- -- -- 907.7 -0.9 60
2019-05-18 06:00:00 8 4 Oeste 13 Noroeste 0 907.4 -1.8 61
2019-05-18 05:00:00 7.8 0 Calma -- -- 0 908.1 -1.5 65
2019-05-18 04:00:00 8.6 0 Calma -- -- 0 908.6 -1.3 58
2019-05-18 03:00:00 8.6 0 Calma -- -- 0 909.2 -0.5 57
2019-05-18 02:00:00 8.4 0 Calma 5 Sudoeste 0 909.6 -0.5 57
2019-05-18 01:00:00 8.6 0 Calma 14 Nordeste 0 909.9 0.4 56
2019-05-18 00:00:00 9 6 Nordeste 13 Nordeste 0 909.7 0.5 52
2019-05-17 23:00:00 10.6 7 Nordeste 29 Nordeste 0 910.1 1.2 46
2019-05-17 22:00:00 10.8 14 Norte 24 Nordeste 0 909.5 0.6 47
2019-05-17 21:00:00 11.6 10 Norte 36 Norte 0 909.2 0.5 45
2019-05-17 20:00:00 12.9 18 Norte 37 Norte 0 908.9 0.3 42
2019-05-17 19:00:00 13.4 23 Norte 41 Noroeste 0 908.9 0.1 42
2019-05-17 18:00:00 13.2 26 Norte 50 Norte 0 908.7 -0.2 42
2019-05-17 17:00:00 13.6 24 Norte 48 Noroeste 0 908.6 -0.1 42
2019-05-17 16:00:00 14 29 Noroeste 54 Noroeste 0 908.8 1 40
2019-05-17 15:00:00 14.5 27 Noroeste 62 Noroeste 0 908.9 1.4 40
2019-05-17 14:00:00 14.3 33 Noroeste 69 Norte 0 908.7 1.9 41
2019-05-17 13:00:00 13.8 30 Noroeste 69 Noroeste 0 907.8 1.1 42
2019-05-17 12:00:00 12.1 40 Noroeste 69 Noroeste 0 907.5 1.2 49
2019-05-17 11:00:00 11.1 35 Noroeste 72 Noroeste 0 906.8 1.1 52
2019-05-17 10:00:00 9.9 33 Noroeste 73 Noroeste 0 906.7 1.5 55
2019-05-17 09:00:00 9 32 Noroeste 59 Norte 0 906.3 1 59
2019-05-17 08:00:00 8.1 34 Noroeste 59 Noroeste 0 905.7 0.3 62
2019-05-17 07:00:00 8.4 27 Noroeste 51 Oeste 0 905.2 -0.2 63
2019-05-17 06:00:00 8.6 20 Noroeste 47 Noroeste 0 905.3 -0.3 62
2019-05-17 05:00:00 9.7 24 Noroeste 51 Noroeste 0 905.4 -0.5 58
2019-05-17 04:00:00 10.6 24 Noroeste 60 Noroeste 0 905.4 -0.9 55
2019-05-17 03:00:00 13.7 23 Oeste 54 Noroeste 0 905.6 -0.6 53
2019-05-17 02:00:00 14.8 26 Oeste 50 Oeste 0 905.9 -0.7 39
2019-05-17 01:00:00 16 19 Oeste 40 Oeste 0 906.3 -0.2 36
2019-05-17 00:00:00 12.7 4 Sudeste 13 Sudeste 0 906.2 -0.2 74